Arzua, Spain
Current Conditions -  °F | °C
As of 4:00 AM on Saturday 22 Nov 2014 (Local Time) from LEST Reporting Station
Light Fog Light Fog  
Wind Chill: 54°   Ceiling: 1400
Heat Index: 54°   Visibility: 1.2mi
Dew Point: 54°   Wind: 2mph
Humidity: 100%   Direction: NA
Pressure: 29.88"   Gusts: NA
Location:  42.93°N, 8.15°W
Report Text: LEST 220300Z VRB02KT 2000 0500S R35/0400N BCFG SCT001BKN014 12/12 Q1012 TEMPO 0800 RA BCFG BKN001
Loading
Personal Weather Stations






























Interactive Weather Map New forecast layout! Learn more

10-Day Weather Forecast

Advertisements
Track Severe Weather on mobile